createdAt,value
2023-12-09T00:00:26.864Z,2.13
2023-12-09T00:03:15.813Z,2.11
2023-12-09T00:05:43.372Z,2.15
2023-12-09T00:08:10.976Z,2.02
2023-12-09T00:10:38.795Z,1.94
2023-12-09T00:13:06.223Z,2.22
2023-12-09T00:15:33.535Z,2.08
2023-12-09T00:18:01.184Z,2.18
2023-12-09T00:20:30.072Z,1.60
2023-12-09T00:22:57.779Z,2.12
2023-12-09T00:25:25.410Z,2.10
2023-12-09T00:27:53.142Z,2.15
2023-12-09T00:30:20.360Z,2.26
2023-12-09T00:32:48.384Z,2.27
2023-12-09T00:35:15.738Z,2.21
2023-12-09T00:37:44.709Z,2.16
2023-12-09T00:40:13.164Z,1.87
2023-12-09T00:42:40.836Z,2.19
2023-12-09T00:45:08.564Z,1.80
2023-12-09T00:47:36.013Z,2.00
2023-12-09T00:50:03.420Z,2.09
2023-12-09T00:52:30.736Z,2.02
2023-12-09T00:54:59.439Z,1.86
2023-12-09T00:57:26.715Z,1.96
2023-12-09T00:59:54.127Z,1.94
2023-12-09T01:02:21.572Z,1.60
2023-12-09T01:04:48.651Z,1.77
2023-12-09T01:07:16.057Z,1.94
2023-12-09T01:09:43.301Z,1.77
2023-12-09T01:12:12.092Z,1.92
2023-12-09T01:14:39.279Z,1.78
2023-12-09T01:17:07.443Z,1.96
2023-12-09T01:19:34.704Z,1.98
2023-12-09T01:22:02.204Z,2.00
2023-12-09T01:24:29.503Z,2.02
2023-12-09T01:26:56.958Z,1.55
2023-12-09T01:29:25.483Z,1.83
2023-12-09T01:31:52.870Z,1.82
2023-12-09T01:34:20.214Z,2.05
2023-12-09T01:36:47.811Z,2.10
2023-12-09T01:39:15.083Z,2.02
2023-12-09T01:41:42.605Z,2.09
2023-12-09T01:44:09.758Z,1.84
2023-12-09T01:46:39.743Z,2.13
2023-12-09T01:49:07.496Z,2.12
2023-12-09T01:51:36.499Z,2.07
2023-12-09T01:54:03.909Z,2.07
2023-12-09T01:56:31.699Z,2.04
2023-12-09T01:58:58.919Z,2.02
2023-12-09T02:01:26.867Z,1.94
2023-12-09T02:03:55.478Z,1.79
2023-12-09T02:06:23.087Z,1.99
2023-12-09T02:08:50.617Z,1.75
2023-12-09T02:11:24.332Z,1.72
2023-12-09T02:13:58.319Z,1.99
2023-12-09T02:16:31.355Z,1.89
2023-12-09T02:19:01.911Z,1.99
2023-12-09T02:21:29.536Z,2.00
2023-12-09T02:23:58.284Z,1.83
2023-12-09T02:26:27.376Z,2.02
2023-12-09T02:29:02.043Z,2.01
2023-12-09T02:31:33.007Z,1.72
2023-12-09T02:34:04.585Z,1.99
2023-12-09T02:36:34.260Z,1.73
2023-12-09T02:39:05.021Z,1.96
2023-12-09T02:41:33.944Z,1.93
2023-12-09T02:44:01.216Z,1.83
2023-12-09T02:46:28.662Z,1.95
2023-12-09T02:48:55.880Z,1.71
2023-12-09T02:51:23.337Z,1.98
2023-12-09T02:53:50.847Z,1.82
2023-12-09T02:56:19.725Z,1.81
2023-12-09T02:58:46.857Z,1.93
2023-12-09T03:01:14.192Z,1.90
2023-12-09T03:03:41.421Z,1.89
2023-12-09T03:06:08.968Z,1.73
2023-12-09T03:08:36.065Z,1.86
2023-12-09T03:11:03.632Z,1.55
2023-12-09T03:13:32.337Z,1.85
2023-12-09T03:16:00.853Z,1.86
2023-12-09T03:18:28.110Z,1.66
2023-12-09T03:20:55.522Z,1.90
2023-12-09T03:23:22.679Z,1.28
2023-12-09T03:25:50.067Z,1.87
2023-12-09T03:28:17.082Z,1.85
2023-12-09T03:30:45.930Z,1.83
2023-12-09T03:33:13.511Z,1.84
2023-12-09T03:35:41.006Z,1.64
2023-12-09T03:38:08.073Z,1.87
2023-12-09T03:40:35.449Z,1.71
2023-12-09T03:43:02.582Z,1.65
2023-12-09T03:45:29.948Z,1.85
2023-12-09T03:47:58.781Z,1.86
2023-12-09T03:50:25.986Z,1.87
2023-12-09T03:52:53.317Z,1.87
2023-12-09T03:55:21.074Z,1.67
2023-12-09T03:57:48.325Z,1.72
2023-12-09T04:00:16.564Z,1.92
2023-12-09T04:02:43.765Z,1.35
2023-12-09T04:05:12.671Z,1.92
2023-12-09T04:07:39.773Z,1.95
2023-12-09T04:10:10.230Z,1.96
2023-12-09T04:12:37.599Z,1.97
2023-12-09T04:15:06.076Z,1.69
2023-12-09T04:17:33.242Z,1.71
2023-12-09T04:20:00.747Z,1.97
2023-12-09T04:22:29.446Z,1.76
2023-12-09T04:24:57.006Z,1.80
2023-12-09T04:27:24.178Z,2.03
2023-12-09T04:29:57.830Z,2.03
2023-12-09T04:32:25.215Z,1.41
2023-12-09T04:34:52.729Z,2.00
2023-12-09T04:37:19.834Z,1.44
2023-12-09T04:39:48.564Z,1.96
2023-12-09T04:42:15.707Z,1.96
2023-12-09T04:44:43.094Z,1.96
2023-12-09T04:47:10.266Z,1.96
2023-12-09T04:49:37.870Z,1.85
2023-12-09T04:52:05.954Z,1.83
2023-12-09T04:54:33.459Z,1.92
2023-12-09T04:57:02.138Z,1.49
2023-12-09T04:59:29.707Z,1.79
2023-12-09T05:01:56.882Z,1.82
2023-12-09T05:04:24.617Z,1.58
2023-12-09T05:06:51.932Z,1.67
2023-12-09T05:09:19.471Z,1.73
2023-12-09T05:11:46.624Z,1.75
2023-12-09T05:14:15.469Z,1.66
2023-12-09T05:16:42.542Z,1.69
2023-12-09T05:19:10.026Z,1.72
2023-12-09T05:21:37.329Z,1.71
2023-12-09T05:24:05.755Z,1.59
2023-12-09T05:26:33.229Z,1.67
2023-12-09T05:29:00.660Z,1.42
2023-12-09T05:31:29.297Z,1.39
2023-12-09T05:33:56.780Z,1.65
2023-12-09T05:36:23.943Z,1.62
2023-12-09T05:38:51.344Z,1.59
2023-12-09T05:41:18.458Z,1.42
2023-12-09T05:43:45.863Z,1.35
2023-12-09T05:46:19.777Z,1.60
2023-12-09T05:48:49.218Z,1.61
2023-12-09T05:51:16.456Z,1.56
2023-12-09T05:53:43.897Z,1.45
2023-12-09T05:56:13.059Z,1.53
2023-12-09T05:58:41.064Z,1.53
2023-12-09T06:01:09.315Z,1.54
2023-12-09T06:03:37.171Z,1.29
2023-12-09T06:06:07.378Z,1.30
2023-12-09T06:08:34.930Z,1.50
2023-12-09T06:11:02.075Z,0.87
2023-12-09T06:13:29.584Z,1.28
2023-12-09T06:15:56.657Z,1.27
2023-12-09T06:18:24.288Z,1.31
2023-12-09T06:20:51.381Z,1.48
2023-12-09T06:23:20.309Z,1.33
2023-12-09T06:25:47.633Z,1.60
2023-12-09T06:28:15.047Z,1.34
2023-12-09T06:30:42.078Z,1.63
2023-12-09T06:33:09.792Z,1.65
2023-12-09T06:35:36.859Z,1.70
2023-12-09T06:38:04.139Z,1.76
2023-12-09T06:40:32.493Z,1.81
2023-12-09T06:42:59.918Z,1.84
2023-12-09T06:45:27.205Z,1.90
2023-12-09T06:47:56.420Z,1.94
2023-12-09T06:50:23.626Z,1.97
2023-12-09T06:52:51.042Z,2.09
2023-12-09T06:55:18.084Z,2.20
2023-12-09T06:57:46.808Z,2.29
2023-12-09T07:00:15.868Z,2.36
2023-12-09T07:02:52.991Z,2.45
2023-12-09T07:05:33.653Z,2.42
2023-12-09T07:08:01.372Z,2.64
2023-12-09T07:10:28.442Z,2.72
2023-12-09T07:12:57.393Z,2.73
2023-12-09T07:15:24.647Z,2.72
2023-12-09T07:17:52.690Z,2.75
2023-12-09T07:20:35.103Z,2.73
2023-12-09T07:23:07.909Z,2.81
2023-12-09T07:25:37.952Z,2.87
2023-12-09T07:28:11.923Z,2.88
2023-12-09T07:30:39.463Z,3.01
2023-12-09T07:33:07.037Z,3.01
2023-12-09T07:35:34.689Z,3.09
2023-12-09T07:38:02.155Z,3.08
2023-12-09T07:40:29.358Z,3.27
2023-12-09T07:42:56.689Z,3.03
2023-12-09T07:45:25.285Z,3.31
2023-12-09T07:47:52.759Z,3.40
2023-12-09T07:50:20.342Z,3.41
2023-12-09T07:52:47.944Z,3.47
2023-12-09T07:55:15.338Z,3.55
2023-12-09T07:57:42.781Z,3.51
2023-12-09T08:00:11.468Z,3.53
2023-12-09T08:02:43.500Z,3.50
2023-12-09T08:05:10.758Z,3.53
2023-12-09T08:07:38.326Z,3.60
2023-12-09T08:10:07.544Z,3.69
2023-12-09T08:12:36.560Z,4.09
2023-12-09T08:15:06.369Z,4.24
2023-12-09T08:17:33.939Z,4.84
2023-12-09T08:20:07.866Z,5.24
2023-12-09T08:22:43.448Z,5.20
2023-12-09T08:25:11.297Z,5.61
2023-12-09T08:27:43.231Z,5.55
2023-12-09T08:30:12.146Z,5.68
2023-12-09T08:32:40.822Z,5.50
2023-12-09T08:35:10.791Z,5.13
2023-12-09T08:37:39.345Z,5.27
2023-12-09T08:40:12.527Z,5.50
2023-12-09T08:42:41.073Z,5.66
2023-12-09T08:45:10.567Z,5.48
2023-12-09T08:47:41.057Z,5.36
2023-12-09T08:50:21.958Z,5.48
2023-12-09T08:52:52.027Z,5.62
2023-12-09T08:55:19.567Z,5.74
2023-12-09T08:57:47.374Z,5.59
2023-12-09T09:00:20.283Z,5.90
2023-12-09T09:02:50.473Z,6.12
2023-12-09T09:05:19.292Z,6.12
2023-12-09T09:07:46.694Z,6.13
2023-12-09T09:10:14.613Z,6.11
2023-12-09T09:12:44.763Z,6.25
2023-12-09T09:15:17.334Z,6.24
2023-12-09T09:17:44.938Z,6.08
2023-12-09T09:20:12.294Z,6.25
2023-12-09T09:22:45.416Z,6.23
2023-12-09T09:25:14.674Z,6.28
2023-12-09T09:27:45.384Z,6.43
2023-12-09T09:30:14.562Z,6.47
2023-12-09T09:32:43.814Z,6.58
2023-12-09T09:35:11.024Z,6.69
2023-12-09T09:37:38.570Z,6.81
2023-12-09T09:40:14.682Z,6.91
2023-12-09T09:42:51.134Z,6.91
2023-12-09T09:45:27.215Z,6.92
2023-12-09T09:48:07.369Z,6.90
2023-12-09T09:50:42.090Z,7.26
2023-12-09T09:53:12.202Z,7.39
2023-12-09T09:55:41.775Z,7.51
2023-12-09T09:58:10.095Z,7.39
2023-12-09T10:00:37.647Z,6.73
2023-12-09T10:03:05.314Z,7.23
2023-12-09T10:05:32.829Z,7.13
2023-12-09T10:08:01.789Z,6.59
2023-12-09T10:10:31.087Z,7.14
2023-12-09T10:12:59.896Z,7.39
2023-12-09T10:15:26.977Z,7.42
2023-12-09T10:17:59.105Z,7.31
2023-12-09T10:20:26.673Z,7.37
2023-12-09T10:22:54.067Z,7.39
2023-12-09T10:25:22.483Z,7.23
2023-12-09T10:27:50.193Z,7.33
2023-12-09T10:30:22.088Z,7.38
2023-12-09T10:32:49.710Z,7.36
2023-12-09T10:35:17.829Z,7.21
2023-12-09T10:37:45.331Z,6.90
2023-12-09T10:40:14.497Z,7.10
2023-12-09T10:42:42.363Z,7.03
2023-12-09T10:45:09.953Z,7.06
2023-12-09T10:47:39.000Z,6.95
2023-12-09T10:50:07.227Z,7.22
2023-12-09T10:52:37.088Z,7.02
2023-12-09T10:55:06.657Z,7.16
2023-12-09T10:57:34.876Z,6.78
2023-12-09T11:00:09.525Z,6.63
2023-12-09T11:02:39.566Z,7.07
2023-12-09T11:05:08.584Z,7.02
2023-12-09T11:07:37.071Z,6.96
2023-12-09T11:10:07.619Z,7.19
2023-12-09T11:12:36.812Z,6.77
2023-12-09T11:15:08.970Z,7.38
2023-12-09T11:17:39.062Z,7.29
2023-12-09T11:20:11.234Z,7.43
2023-12-09T11:22:39.429Z,7.14
2023-12-09T11:25:08.784Z,7.87
2023-12-09T11:27:37.265Z,7.88
2023-12-09T11:30:06.236Z,7.43
2023-12-09T11:32:34.131Z,7.82
2023-12-09T11:35:03.158Z,7.86
2023-12-09T11:37:32.270Z,7.97
2023-12-09T11:40:01.422Z,7.80
2023-12-09T11:42:29.920Z,7.75
2023-12-09T11:44:57.453Z,7.99
2023-12-09T11:47:25.349Z,7.88
2023-12-09T11:49:53.296Z,7.80
2023-12-09T11:52:21.961Z,7.83
2023-12-09T11:54:59.882Z,7.65
2023-12-09T11:57:28.842Z,7.73
2023-12-09T11:59:56.537Z,7.52
2023-12-09T12:02:24.049Z,7.73
2023-12-09T12:04:51.231Z,7.72
2023-12-09T12:07:18.653Z,7.54
2023-12-09T12:09:47.553Z,7.77
2023-12-09T12:12:14.761Z,7.78
2023-12-09T12:14:41.961Z,7.67
2023-12-09T12:17:10.484Z,7.61
2023-12-09T12:19:37.923Z,7.75
2023-12-09T12:22:05.816Z,7.61
2023-12-09T12:24:41.420Z,7.61
2023-12-09T12:27:10.537Z,7.39
2023-12-09T12:29:38.182Z,7.59
2023-12-09T12:32:07.081Z,7.57
2023-12-09T12:34:34.682Z,7.64
2023-12-09T12:37:02.933Z,7.76
2023-12-09T12:39:30.066Z,7.81
2023-12-09T12:41:57.604Z,7.50
2023-12-09T12:44:26.806Z,7.72
2023-12-09T12:46:54.385Z,7.73
2023-12-09T12:49:21.514Z,7.77
2023-12-09T12:51:51.022Z,7.67
2023-12-09T12:54:18.887Z,7.65
2023-12-09T12:56:46.438Z,7.51
2023-12-09T12:59:13.540Z,7.39
2023-12-09T13:01:42.527Z,7.35
2023-12-09T13:04:10.807Z,7.17
2023-12-09T13:06:39.676Z,7.02
2023-12-09T13:09:09.786Z,6.87
2023-12-09T13:11:37.266Z,7.01
2023-12-09T13:14:05.237Z,7.15
2023-12-09T13:16:33.000Z,6.89
2023-12-09T13:19:01.894Z,6.42
2023-12-09T13:21:29.481Z,6.47
2023-12-09T13:23:56.735Z,6.29
2023-12-09T13:26:24.344Z,6.56
2023-12-09T13:28:51.565Z,6.57
2023-12-09T13:31:19.127Z,6.75
2023-12-09T13:33:46.396Z,6.72
2023-12-09T13:36:16.360Z,6.71
2023-12-09T13:38:43.855Z,6.71
2023-12-09T13:41:11.335Z,6.41
2023-12-09T13:43:38.574Z,6.73
2023-12-09T13:46:06.626Z,6.67
2023-12-09T13:48:36.041Z,6.39
2023-12-09T13:51:06.204Z,6.62
2023-12-09T13:53:35.135Z,6.54
2023-12-09T13:56:02.562Z,6.49
2023-12-09T13:58:29.885Z,6.44
2023-12-09T14:01:01.959Z,6.32
2023-12-09T14:03:29.714Z,6.31
2023-12-09T14:06:00.647Z,6.23
2023-12-09T14:08:28.562Z,6.24
2023-12-09T14:10:58.466Z,6.21
2023-12-09T14:13:26.022Z,5.79
2023-12-09T14:15:54.253Z,5.97
2023-12-09T14:18:21.609Z,6.00
2023-12-09T14:20:49.247Z,5.83
2023-12-09T14:23:16.325Z,5.66
2023-12-09T14:25:43.962Z,5.57
2023-12-09T14:28:12.781Z,4.96
2023-12-09T14:30:40.274Z,5.53
2023-12-09T14:33:07.819Z,4.93
2023-12-09T14:35:35.469Z,5.42
2023-12-09T14:38:02.686Z,5.39
2023-12-09T14:40:30.872Z,5.31
2023-12-09T14:42:58.031Z,5.34
2023-12-09T14:45:26.853Z,5.35
2023-12-09T14:48:01.195Z,4.86
2023-12-09T14:50:32.726Z,4.71
2023-12-09T14:53:00.307Z,5.12
2023-12-09T14:55:27.759Z,4.67
2023-12-09T14:57:55.270Z,5.15
2023-12-09T15:00:23.537Z,4.51
2023-12-09T15:02:52.187Z,4.83
2023-12-09T15:05:19.835Z,4.45
2023-12-09T15:07:47.264Z,4.97
2023-12-09T15:10:15.167Z,4.93
2023-12-09T15:12:43.532Z,4.93
2023-12-09T15:15:12.527Z,4.94
2023-12-09T15:17:39.946Z,4.91
2023-12-09T15:20:10.693Z,4.32
2023-12-09T15:22:38.451Z,4.94
2023-12-09T15:25:07.137Z,4.72
2023-12-09T15:27:34.360Z,4.85
2023-12-09T15:30:05.355Z,4.79
2023-12-09T15:32:33.756Z,3.96
2023-12-09T15:35:03.633Z,4.53
2023-12-09T15:37:33.268Z,4.35
2023-12-09T15:40:00.931Z,4.78
2023-12-09T15:42:28.431Z,4.83
2023-12-09T15:44:57.790Z,4.72
2023-12-09T15:47:25.406Z,4.74
2023-12-09T15:49:53.749Z,4.78
2023-12-09T15:52:20.887Z,4.44
2023-12-09T15:54:50.256Z,4.37
2023-12-09T15:57:17.796Z,4.44
2023-12-09T15:59:47.524Z,3.65
2023-12-09T16:02:15.087Z,4.08
2023-12-09T16:04:42.748Z,3.44
2023-12-09T16:07:09.938Z,3.90
2023-12-09T16:09:41.173Z,3.93
2023-12-09T16:12:13.672Z,3.34
2023-12-09T16:14:41.113Z,3.95
2023-12-09T16:17:09.042Z,3.95
2023-12-09T16:19:36.742Z,3.88
2023-12-09T16:22:04.812Z,3.63
2023-12-09T16:24:32.541Z,3.96
2023-12-09T16:26:59.727Z,3.83
2023-12-09T16:29:29.614Z,3.93
2023-12-09T16:31:56.839Z,3.94
2023-12-09T16:34:24.344Z,3.71
2023-12-09T16:36:51.718Z,3.22
2023-12-09T16:39:19.030Z,3.74
2023-12-09T16:41:46.258Z,3.81
2023-12-09T16:44:14.056Z,3.77
2023-12-09T16:46:42.607Z,3.33
2023-12-09T16:49:10.386Z,3.14
2023-12-09T16:51:37.485Z,3.73
2023-12-09T16:54:05.093Z,3.13
2023-12-09T16:56:32.416Z,3.60
2023-12-09T16:59:00.285Z,3.72
2023-12-09T17:01:27.493Z,3.09
2023-12-09T17:03:56.585Z,3.33
2023-12-09T17:06:23.795Z,3.63
2023-12-09T17:08:51.247Z,3.31
2023-12-09T17:11:18.501Z,3.58
2023-12-09T17:13:46.237Z,3.47
2023-12-09T17:16:13.884Z,3.47
2023-12-09T17:18:41.404Z,3.44
2023-12-09T17:21:10.161Z,3.17
2023-12-09T17:23:40.907Z,3.52
2023-12-09T17:26:08.890Z,3.51
2023-12-09T17:28:36.424Z,3.52
2023-12-09T17:31:04.333Z,3.47
2023-12-09T17:33:31.918Z,3.22
2023-12-09T17:35:59.293Z,3.42
2023-12-09T17:38:29.576Z,3.43
2023-12-09T17:40:56.787Z,3.45
2023-12-09T17:43:24.302Z,3.49
2023-12-09T17:45:54.427Z,3.47
2023-12-09T17:48:24.564Z,3.39
2023-12-09T17:50:51.830Z,3.44
2023-12-09T17:53:21.327Z,3.31
2023-12-09T17:55:50.122Z,3.36
2023-12-09T17:58:17.510Z,3.20
2023-12-09T18:00:44.903Z,3.08
2023-12-09T18:03:12.999Z,3.22
2023-12-09T18:05:40.373Z,3.36
2023-12-09T18:08:07.896Z,3.38
2023-12-09T18:10:35.259Z,3.37
2023-12-09T18:13:04.091Z,2.83
2023-12-09T18:15:31.945Z,3.44
2023-12-09T18:18:00.391Z,3.43
2023-12-09T18:20:27.570Z,3.19
2023-12-09T18:22:57.945Z,3.48
2023-12-09T18:25:26.955Z,3.54
2023-12-09T18:27:54.535Z,3.59
2023-12-09T18:30:23.880Z,3.48
2023-12-09T18:32:51.420Z,3.60
2023-12-09T18:35:19.010Z,3.59
2023-12-09T18:37:46.538Z,3.66
2023-12-09T18:40:14.126Z,3.66
2023-12-09T18:42:41.600Z,3.71
2023-12-09T18:45:09.541Z,3.74
2023-12-09T18:47:40.282Z,3.78
2023-12-09T18:50:07.981Z,3.80
2023-12-09T18:52:35.318Z,3.81
2023-12-09T18:55:02.513Z,3.78
2023-12-09T18:57:31.074Z,3.92
2023-12-09T18:59:58.265Z,4.00
2023-12-09T19:02:25.766Z,3.79
2023-12-09T19:04:54.939Z,3.14
2023-12-09T19:07:22.529Z,2.69
2023-12-09T19:09:52.741Z,2.50
2023-12-09T19:12:20.251Z,2.41
2023-12-09T19:14:47.696Z,2.42
2023-12-09T19:17:15.762Z,2.77
2023-12-09T19:19:43.201Z,2.94
2023-12-09T19:22:12.207Z,2.97
2023-12-09T19:24:40.996Z,3.15
2023-12-09T19:27:11.520Z,3.22
2023-12-09T19:29:40.626Z,3.43
2023-12-09T19:32:08.652Z,3.53
2023-12-09T19:34:36.810Z,3.67
2023-12-09T19:37:05.288Z,3.71
2023-12-09T19:39:34.328Z,3.82
2023-12-09T19:42:01.829Z,3.94
2023-12-09T19:44:29.493Z,4.03
2023-12-09T19:46:57.657Z,3.63
2023-12-09T19:49:25.757Z,4.03
2023-12-09T19:51:53.318Z,3.86
2023-12-09T19:54:20.635Z,4.05
2023-12-09T19:56:50.577Z,3.92
2023-12-09T19:59:17.683Z,3.26
2023-12-09T20:01:45.664Z,3.53
2023-12-09T20:04:12.885Z,3.68
2023-12-09T20:06:41.461Z,3.62
2023-12-09T20:09:08.871Z,3.57
2023-12-09T20:11:36.313Z,3.58
2023-12-09T20:14:05.001Z,3.69
2023-12-09T20:16:32.676Z,3.26
2023-12-09T20:19:00.082Z,3.33
2023-12-09T20:21:27.674Z,3.38
2023-12-09T20:23:54.749Z,3.76
2023-12-09T20:26:22.219Z,3.35
2023-12-09T20:28:49.542Z,3.36
2023-12-09T20:31:18.348Z,3.18
2023-12-09T20:33:45.994Z,3.72
2023-12-09T20:36:13.604Z,2.86
2023-12-09T20:38:40.874Z,3.26
2023-12-09T20:41:10.653Z,3.74
2023-12-09T20:43:37.991Z,3.77
2023-12-09T20:46:06.189Z,3.83
2023-12-09T20:48:34.754Z,3.24
2023-12-09T20:51:02.267Z,3.87
2023-12-09T20:53:30.540Z,3.82
2023-12-09T20:55:58.059Z,3.79
2023-12-09T20:58:25.412Z,3.78
2023-12-09T21:00:52.874Z,3.87
2023-12-09T21:03:20.657Z,3.56
2023-12-09T21:05:53.835Z,3.60
2023-12-09T21:08:21.671Z,3.19
2023-12-09T21:10:49.502Z,3.65
2023-12-09T21:13:21.691Z,3.51
2023-12-09T21:15:52.430Z,3.11
2023-12-09T21:18:21.377Z,3.07
2023-12-09T21:20:51.053Z,3.75
2023-12-09T21:23:18.027Z,3.86
2023-12-09T21:25:49.311Z,3.95
2023-12-09T21:28:16.443Z,4.04
2023-12-09T21:30:44.012Z,3.90
2023-12-09T21:33:11.564Z,4.03
2023-12-09T21:35:39.134Z,3.68
2023-12-09T21:38:07.750Z,3.90
2023-12-09T21:40:35.454Z,3.69
2023-12-09T21:43:04.390Z,3.62
2023-12-09T21:45:32.118Z,3.70
2023-12-09T21:47:59.499Z,3.36
2023-12-09T21:50:27.008Z,3.33
2023-12-09T21:52:54.051Z,3.25
2023-12-09T21:55:25.179Z,2.94
2023-12-09T21:57:52.528Z,2.87
2023-12-09T22:00:20.353Z,3.26
2023-12-09T22:02:48.269Z,3.38
2023-12-09T22:05:16.056Z,3.23
2023-12-09T22:07:43.172Z,3.33
2023-12-09T22:10:10.838Z,2.17
2023-12-09T22:12:41.406Z,3.07
2023-12-09T22:15:09.760Z,3.10
2023-12-09T22:17:38.072Z,2.82
2023-12-09T22:20:07.404Z,3.09
2023-12-09T22:22:41.183Z,2.92
2023-12-09T22:25:13.227Z,2.84
2023-12-09T22:27:41.905Z,3.18
2023-12-09T22:30:10.434Z,3.35
2023-12-09T22:32:38.120Z,3.43
2023-12-09T22:35:07.006Z,3.52
2023-12-09T22:37:34.647Z,3.48
2023-12-09T22:40:02.118Z,3.06
2023-12-09T22:42:29.797Z,3.43
2023-12-09T22:44:58.798Z,3.24
2023-12-09T22:47:26.089Z,3.68
2023-12-09T22:49:54.083Z,3.10
2023-12-09T22:52:21.348Z,2.91
2023-12-09T22:54:49.056Z,2.99
2023-12-09T22:57:18.340Z,2.47
2023-12-09T22:59:46.388Z,2.31
2023-12-09T23:02:15.307Z,1.93
2023-12-09T23:04:42.980Z,2.04
2023-12-09T23:07:10.367Z,1.48
2023-12-09T23:09:38.314Z,2.09
2023-12-09T23:12:06.841Z,2.08
2023-12-09T23:14:34.299Z,2.24
2023-12-09T23:17:01.448Z,2.16
2023-12-09T23:19:31.550Z,2.54
2023-12-09T23:21:58.610Z,2.23
2023-12-09T23:24:26.532Z,3.01
2023-12-09T23:26:54.923Z,3.19
2023-12-09T23:29:22.252Z,3.24
2023-12-09T23:31:49.578Z,3.37
2023-12-09T23:34:17.669Z,3.43
2023-12-09T23:36:46.913Z,2.67
2023-12-09T23:39:14.281Z,3.63
2023-12-09T23:41:42.824Z,3.34
2023-12-09T23:44:10.202Z,3.53
2023-12-09T23:46:37.341Z,3.78
2023-12-09T23:49:06.375Z,3.78
2023-12-09T23:51:34.386Z,3.67
2023-12-09T23:54:04.853Z,3.97
2023-12-09T23:56:33.153Z,4.10
2023-12-09T23:59:04.008Z,3.90
